createdAt,value
2017-08-08T00:00:38.365Z,48.20
2017-08-08T00:03:05.846Z,48.30
2017-08-08T00:05:33.302Z,48.30
2017-08-08T00:08:00.781Z,48.30
2017-08-08T00:10:28.261Z,48.40
2017-08-08T00:12:55.738Z,48.40
2017-08-08T00:15:23.202Z,48.60
2017-08-08T00:17:50.681Z,48.70
2017-08-08T00:20:18.148Z,48.80
2017-08-08T00:22:45.626Z,48.80
2017-08-08T00:25:13.106Z,48.90
2017-08-08T00:27:40.589Z,48.80
2017-08-08T00:30:08.089Z,48.90
2017-08-08T00:32:35.560Z,48.90
2017-08-08T00:35:03.788Z,49.50
2017-08-08T00:37:31.269Z,49.00
2017-08-08T00:39:58.726Z,49.00
2017-08-08T00:42:26.183Z,49.10
2017-08-08T00:44:53.686Z,49.10
2017-08-08T00:47:21.133Z,49.20
2017-08-08T00:49:48.586Z,49.30
2017-08-08T00:52:16.069Z,49.40
2017-08-08T00:54:43.529Z,49.40
2017-08-08T00:57:10.987Z,49.40
2017-08-08T00:59:38.475Z,49.50
2017-08-08T01:02:05.957Z,49.50
2017-08-08T01:04:33.414Z,49.50
2017-08-08T01:07:00.893Z,49.50
2017-08-08T01:09:29.119Z,49.60
2017-08-08T01:11:56.569Z,49.70
2017-08-08T01:14:24.046Z,49.60
2017-08-08T01:16:51.502Z,49.70
2017-08-08T01:19:19.017Z,49.70
2017-08-08T01:21:46.477Z,49.70
2017-08-08T01:24:13.924Z,49.80
2017-08-08T01:26:42.179Z,49.80
2017-08-08T01:29:09.631Z,49.80
2017-08-08T01:31:37.073Z,49.90
2017-08-08T01:34:04.575Z,49.90
2017-08-08T01:36:32.792Z,50.00
2017-08-08T01:39:00.249Z,50.00
2017-08-08T01:41:27.744Z,50.00
2017-08-08T01:43:55.206Z,50.20
2017-08-08T01:46:22.663Z,50.20
2017-08-08T01:48:50.141Z,50.20
2017-08-08T01:51:18.389Z,50.20
2017-08-08T01:53:45.839Z,50.20
2017-08-08T01:56:13.321Z,50.10
2017-08-08T01:58:40.778Z,50.20
2017-08-08T02:01:08.242Z,50.20
2017-08-08T02:03:36.481Z,50.30
2017-08-08T02:06:03.939Z,50.20
2017-08-08T02:08:31.422Z,50.30
2017-08-08T02:10:58.877Z,50.30
2017-08-08T02:13:26.334Z,50.30
2017-08-08T02:15:53.813Z,50.30
2017-08-08T02:18:22.073Z,50.40
2017-08-08T02:20:49.526Z,50.30
2017-08-08T02:23:16.983Z,50.30
2017-08-08T02:25:44.469Z,50.40
2017-08-08T02:28:11.982Z,50.40
2017-08-08T02:30:39.455Z,50.40
2017-08-08T02:33:06.913Z,50.50
2017-08-08T02:35:34.402Z,50.50
2017-08-08T02:38:02.626Z,50.60
2017-08-08T02:40:30.082Z,50.60
2017-08-08T02:42:57.572Z,50.70
2017-08-08T02:45:25.036Z,51.30
2017-08-08T02:47:52.522Z,50.90
2017-08-08T02:50:19.985Z,50.90
2017-08-08T02:52:47.444Z,51.00
2017-08-08T02:55:14.942Z,51.00
2017-08-08T02:57:42.397Z,51.10
2017-08-08T03:00:09.858Z,51.20
2017-08-08T03:02:37.338Z,51.30
2017-08-08T03:05:04.831Z,51.40
2017-08-08T03:07:32.322Z,51.40
2017-08-08T03:09:59.777Z,51.40
2017-08-08T03:12:27.234Z,51.50
2017-08-08T03:14:54.715Z,51.60
2017-08-08T03:17:22.182Z,51.60
2017-08-08T03:19:49.665Z,51.70
2017-08-08T03:22:17.919Z,51.80
2017-08-08T03:24:45.377Z,51.80
2017-08-08T03:27:12.872Z,51.90
2017-08-08T03:29:40.336Z,52.00
2017-08-08T03:32:07.786Z,52.00
2017-08-08T03:34:35.274Z,52.10
2017-08-08T03:37:02.739Z,52.10
2017-08-08T03:39:30.222Z,52.20
2017-08-08T03:41:57.725Z,52.30
2017-08-08T03:44:25.177Z,52.30
2017-08-08T03:46:52.633Z,52.40
2017-08-08T03:49:20.129Z,52.50
2017-08-08T03:51:47.586Z,52.60
2017-08-08T03:54:15.049Z,52.70
2017-08-08T03:56:42.550Z,52.80
2017-08-08T03:59:10.015Z,52.80
2017-08-08T04:01:37.534Z,52.90
2017-08-08T04:04:04.984Z,52.90
2017-08-08T04:06:32.452Z,52.90
2017-08-08T04:08:59.978Z,53.00
2017-08-08T04:11:27.444Z,53.20
2017-08-08T04:13:54.898Z,53.20
2017-08-08T04:16:22.391Z,53.30
2017-08-08T04:18:49.880Z,53.80
2017-08-08T04:21:17.344Z,53.30
2017-08-08T04:23:44.822Z,53.40
2017-08-08T04:26:12.313Z,53.40
2017-08-08T04:28:39.774Z,53.40
2017-08-08T04:31:07.245Z,53.40
2017-08-08T04:33:34.730Z,53.40
2017-08-08T04:36:02.186Z,53.60
2017-08-08T04:38:29.673Z,53.60
2017-08-08T04:40:57.133Z,53.70
2017-08-08T04:43:24.592Z,53.60
2017-08-08T04:45:52.074Z,53.70
2017-08-08T04:48:19.541Z,53.70
2017-08-08T04:50:47.050Z,53.70
2017-08-08T04:53:14.521Z,53.70
2017-08-08T04:55:41.982Z,53.70
2017-08-08T04:58:09.482Z,53.70
2017-08-08T05:00:36.952Z,53.70
2017-08-08T05:03:04.689Z,53.60
2017-08-08T05:05:32.182Z,53.70
2017-08-08T05:07:59.654Z,53.70
2017-08-08T05:10:27.873Z,53.60
2017-08-08T05:12:55.359Z,53.60
2017-08-08T05:15:22.822Z,53.60
2017-08-08T05:17:50.326Z,53.60
2017-08-08T05:20:17.793Z,53.60
2017-08-08T05:22:45.250Z,53.50
2017-08-08T05:25:12.747Z,53.60
2017-08-08T05:27:40.205Z,53.40
2017-08-08T05:30:07.663Z,53.30
2017-08-08T05:32:35.167Z,53.20
2017-08-08T05:35:02.623Z,53.10
2017-08-08T05:37:30.072Z,53.00
2017-08-08T05:39:57.554Z,52.90
2017-08-08T05:42:25.010Z,52.90
2017-08-08T05:44:52.481Z,53.00
2017-08-08T05:47:19.950Z,52.90
2017-08-08T05:49:47.430Z,53.00
2017-08-08T05:52:14.954Z,53.10
2017-08-08T05:54:42.405Z,53.00
2017-08-08T05:57:09.863Z,52.90
2017-08-08T05:59:37.338Z,52.80
2017-08-08T06:02:04.830Z,52.70
2017-08-08T06:04:32.285Z,52.50
2017-08-08T06:06:59.773Z,52.30
2017-08-08T06:09:28.031Z,52.30
2017-08-08T06:11:56.497Z,51.70
2017-08-08T06:14:23.966Z,51.70
2017-08-08T06:16:51.474Z,51.70
2017-08-08T06:19:18.935Z,51.60
2017-08-08T06:21:46.387Z,51.20
2017-08-08T06:24:13.869Z,50.90
2017-08-08T06:26:41.323Z,50.70
2017-08-08T06:29:08.773Z,50.30
2017-08-08T06:31:36.250Z,50.20
2017-08-08T06:34:03.770Z,50.40
2017-08-08T06:36:31.258Z,50.30
2017-08-08T06:38:58.746Z,50.30
2017-08-08T06:41:26.198Z,50.30
2017-08-08T06:43:53.653Z,50.50
2017-08-08T06:46:21.132Z,50.30
2017-08-08T06:48:48.598Z,50.00
2017-08-08T06:51:16.078Z,49.80
2017-08-08T06:53:43.534Z,49.80
2017-08-08T06:56:10.998Z,50.30
2017-08-08T06:58:38.470Z,49.70
2017-08-08T07:01:05.953Z,49.80
2017-08-08T07:03:33.409Z,49.70
2017-08-08T07:06:00.866Z,49.60
2017-08-08T07:08:28.361Z,49.60
2017-08-08T07:10:56.601Z,49.90
2017-08-08T07:13:24.057Z,49.90
2017-08-08T07:15:51.539Z,49.80
2017-08-08T07:18:19.014Z,49.80
2017-08-08T07:20:47.270Z,49.60
2017-08-08T07:23:14.753Z,49.60
2017-08-08T07:25:42.237Z,49.40
2017-08-08T07:28:09.702Z,49.10
2017-08-08T07:30:37.182Z,48.90
2017-08-08T07:33:04.678Z,49.20
2017-08-08T07:35:32.902Z,49.10
2017-08-08T07:38:00.358Z,49.10
2017-08-08T07:40:27.830Z,49.00
2017-08-08T07:42:55.313Z,48.70
2017-08-08T07:45:22.774Z,48.30
2017-08-08T07:47:50.262Z,48.20
2017-08-08T07:50:17.721Z,48.20
2017-08-08T07:52:45.177Z,48.10
2017-08-08T07:55:12.652Z,47.80
2017-08-08T07:57:40.105Z,47.70
2017-08-08T08:00:07.588Z,47.40
2017-08-08T08:02:35.039Z,47.40
2017-08-08T08:05:02.508Z,47.20
2017-08-08T08:07:29.981Z,47.20
2017-08-08T08:09:57.455Z,47.10
2017-08-08T08:12:24.942Z,47.10
2017-08-08T08:14:52.389Z,47.00
2017-08-08T08:17:20.614Z,46.60
2017-08-08T08:19:48.088Z,46.60
2017-08-08T08:22:15.538Z,46.50
2017-08-08T08:24:43.027Z,46.40
2017-08-08T08:27:10.482Z,46.30
2017-08-08T08:29:37.943Z,46.50
2017-08-08T08:32:05.507Z,46.60
2017-08-08T08:34:32.953Z,46.30
2017-08-08T08:37:00.413Z,46.30
2017-08-08T08:39:27.885Z,46.00
2017-08-08T08:41:56.101Z,45.70
2017-08-08T08:44:23.549Z,45.60
2017-08-08T08:46:51.054Z,45.50
2017-08-08T08:49:18.510Z,45.30
2017-08-08T08:51:45.970Z,45.20
2017-08-08T08:54:13.446Z,45.30
2017-08-08T08:56:41.670Z,45.20
2017-08-08T08:59:09.173Z,45.20
2017-08-08T09:01:36.625Z,45.90
2017-08-08T09:04:04.081Z,45.20
2017-08-08T09:06:31.557Z,45.20
2017-08-08T09:08:59.772Z,45.00
2017-08-08T09:11:27.263Z,44.90
2017-08-08T09:13:54.709Z,44.90
2017-08-08T09:16:22.164Z,45.00
2017-08-08T09:18:49.642Z,45.00
2017-08-08T09:21:17.108Z,45.00
2017-08-08T09:23:44.586Z,45.20
2017-08-08T09:26:12.808Z,45.40
2017-08-08T09:28:40.266Z,45.40
2017-08-08T09:31:07.754Z,45.60
2017-08-08T09:33:35.218Z,45.70
2017-08-08T09:36:02.677Z,45.60
2017-08-08T09:38:30.150Z,45.80
2017-08-08T09:40:57.598Z,45.80
2017-08-08T09:43:25.109Z,45.70
2017-08-08T09:45:52.570Z,45.70
2017-08-08T09:48:20.036Z,45.70
2017-08-08T09:50:47.526Z,45.50
2017-08-08T09:53:15.013Z,45.40
2017-08-08T09:55:42.515Z,45.00
2017-08-08T09:58:09.977Z,44.80
2017-08-08T10:00:37.438Z,44.90
2017-08-08T10:03:04.939Z,45.10
2017-08-08T10:05:32.407Z,45.30
2017-08-08T10:07:59.862Z,45.20
2017-08-08T10:10:27.347Z,45.30
2017-08-08T10:12:54.877Z,45.50
2017-08-08T10:15:22.346Z,45.40
2017-08-08T10:17:49.801Z,45.60
2017-08-08T10:20:17.301Z,45.60
2017-08-08T10:22:44.762Z,45.70
2017-08-08T10:25:12.225Z,46.00
2017-08-08T10:27:39.722Z,46.50
2017-08-08T10:30:07.182Z,46.20
2017-08-08T10:32:35.402Z,46.50
2017-08-08T10:35:02.921Z,46.60
2017-08-08T10:37:30.382Z,46.70
2017-08-08T10:39:57.849Z,46.80
2017-08-08T10:42:25.374Z,46.80
2017-08-08T10:44:53.606Z,47.00
2017-08-08T10:47:21.064Z,47.00
2017-08-08T10:49:48.550Z,47.00
2017-08-08T10:52:16.001Z,47.00
2017-08-08T10:54:43.483Z,47.00
2017-08-08T10:57:10.938Z,47.20
2017-08-08T10:59:38.421Z,47.40
2017-08-08T11:02:05.889Z,47.50
2017-08-08T11:04:33.350Z,47.80
2017-08-08T11:07:00.833Z,48.00
2017-08-08T11:09:28.299Z,48.10
2017-08-08T11:11:55.778Z,48.30
2017-08-08T11:14:23.267Z,48.00
2017-08-08T11:16:50.733Z,47.80
2017-08-08T11:19:18.253Z,47.30
2017-08-08T11:21:45.723Z,47.20
2017-08-08T11:24:13.178Z,46.80
2017-08-08T11:26:41.051Z,46.70
2017-08-08T11:29:08.521Z,46.70
2017-08-08T11:31:35.995Z,46.70
2017-08-08T11:34:03.489Z,46.70
2017-08-08T11:36:30.956Z,46.60
2017-08-08T11:38:58.414Z,46.70
2017-08-08T11:41:25.893Z,46.80
2017-08-08T11:43:53.396Z,46.90
2017-08-08T11:46:20.873Z,46.70
2017-08-08T11:48:48.330Z,46.90
2017-08-08T11:51:15.826Z,47.00
2017-08-08T11:53:43.283Z,46.70
2017-08-08T11:56:10.742Z,47.10
2017-08-08T11:58:38.235Z,47.20
2017-08-08T12:01:05.718Z,47.60
2017-08-08T12:03:33.198Z,48.30
2017-08-08T12:06:00.654Z,49.20
2017-08-08T12:08:28.145Z,49.50
2017-08-08T12:10:55.613Z,49.70
2017-08-08T12:13:23.070Z,49.80
2017-08-08T12:15:51.341Z,50.70
2017-08-08T12:18:19.566Z,50.70
2017-08-08T12:20:47.034Z,50.70
2017-08-08T12:23:14.519Z,51.20
2017-08-08T12:25:41.998Z,51.50
2017-08-08T12:28:09.497Z,51.80
2017-08-08T12:30:36.962Z,52.10
2017-08-08T12:33:04.437Z,52.60
2017-08-08T12:35:31.910Z,52.90
2017-08-08T12:37:59.414Z,53.50
2017-08-08T12:40:26.869Z,54.00
2017-08-08T12:42:54.333Z,54.00
2017-08-08T12:45:21.815Z,54.30
2017-08-08T12:47:49.306Z,54.50
2017-08-08T12:50:16.797Z,54.40
2017-08-08T12:52:44.250Z,54.50
2017-08-08T12:55:11.698Z,54.40
2017-08-08T12:57:39.965Z,54.50
2017-08-08T13:00:07.430Z,54.40
2017-08-08T13:02:35.645Z,55.00
2017-08-08T13:05:03.121Z,55.00
2017-08-08T13:07:30.611Z,55.20
2017-08-08T13:09:58.087Z,55.30
2017-08-08T13:12:26.309Z,55.90
2017-08-08T13:14:53.782Z,55.90
2017-08-08T13:17:21.238Z,56.00
2017-08-08T13:19:48.714Z,55.90
2017-08-08T13:22:16.169Z,56.00
2017-08-08T13:24:43.649Z,56.30
2017-08-08T13:27:11.874Z,56.00
2017-08-08T13:29:39.369Z,56.00
2017-08-08T13:32:06.832Z,56.10
2017-08-08T13:34:35.058Z,55.80
2017-08-08T13:37:02.544Z,56.10
2017-08-08T13:39:30.022Z,55.80
2017-08-08T13:41:58.266Z,55.20
2017-08-08T13:44:25.718Z,55.70
2017-08-08T13:46:53.193Z,55.70
2017-08-08T13:49:20.641Z,55.80
2017-08-08T13:51:48.123Z,56.00
2017-08-08T13:54:15.582Z,56.00
2017-08-08T13:56:43.067Z,56.00
2017-08-08T13:59:10.527Z,55.80
2017-08-08T14:01:38.010Z,55.80
2017-08-08T14:04:05.471Z,55.70
2017-08-08T14:06:32.946Z,55.70
2017-08-08T14:09:00.416Z,55.80
2017-08-08T14:11:27.889Z,56.20
2017-08-08T14:13:55.350Z,56.00
2017-08-08T14:16:22.847Z,56.00
2017-08-08T14:18:50.305Z,56.10
2017-08-08T14:21:17.770Z,55.90
2017-08-08T14:23:45.261Z,55.70
2017-08-08T14:26:12.736Z,55.90
2017-08-08T14:28:40.193Z,55.80
2017-08-08T14:31:07.687Z,55.50
2017-08-08T14:33:35.145Z,55.70
2017-08-08T14:36:02.605Z,55.90
2017-08-08T14:38:30.126Z,56.30
2017-08-08T14:40:57.587Z,56.60
2017-08-08T14:43:25.055Z,56.90
2017-08-08T14:45:53.318Z,57.10
2017-08-08T14:48:20.774Z,57.10
2017-08-08T14:50:48.233Z,57.50
2017-08-08T14:53:15.725Z,58.30
2017-08-08T14:55:43.195Z,57.70
2017-08-08T14:58:10.676Z,57.90
2017-08-08T15:00:38.157Z,57.90
2017-08-08T15:03:05.682Z,57.90
2017-08-08T15:05:33.150Z,57.80
2017-08-08T15:08:00.609Z,57.80
2017-08-08T15:10:28.110Z,57.80
2017-08-08T15:12:55.563Z,57.70
2017-08-08T15:15:23.017Z,57.50
2017-08-08T15:17:50.506Z,57.50
2017-08-08T15:20:17.994Z,57.60
2017-08-08T15:22:45.465Z,57.70
2017-08-08T15:25:12.957Z,57.70
2017-08-08T15:27:40.419Z,57.70
2017-08-08T15:30:07.894Z,57.60
2017-08-08T15:32:35.358Z,57.60
2017-08-08T15:35:02.843Z,57.40
2017-08-08T15:37:30.322Z,57.20
2017-08-08T15:39:57.815Z,57.20
2017-08-08T15:42:25.309Z,57.40
2017-08-08T15:44:52.778Z,57.50
2017-08-08T15:47:20.245Z,57.30
2017-08-08T15:49:47.734Z,57.40
2017-08-08T15:52:15.217Z,55.40
2017-08-08T15:54:43.467Z,52.60
2017-08-08T15:57:10.979Z,52.50
2017-08-08T15:59:39.211Z,50.30
2017-08-08T16:02:06.672Z,50.30
2017-08-08T16:04:34.159Z,49.90
2017-08-08T16:07:01.647Z,49.70
2017-08-08T16:09:29.106Z,50.50
2017-08-08T16:11:56.594Z,51.30
2017-08-08T16:14:24.049Z,52.10
2017-08-08T16:16:51.505Z,52.50
2017-08-08T16:19:19.007Z,53.00
2017-08-08T16:21:46.461Z,53.80
2017-08-08T16:24:13.918Z,54.30
2017-08-08T16:26:41.391Z,54.70
2017-08-08T16:29:08.870Z,54.80
2017-08-08T16:31:36.349Z,55.10
2017-08-08T16:34:03.809Z,55.30
2017-08-08T16:36:31.265Z,55.40
2017-08-08T16:38:58.742Z,55.60
2017-08-08T16:41:26.238Z,55.70
2017-08-08T16:43:53.729Z,56.00
2017-08-08T16:46:21.184Z,56.40
2017-08-08T16:48:48.644Z,56.20
2017-08-08T16:51:16.122Z,56.20
2017-08-08T16:53:43.617Z,56.40
2017-08-08T16:56:11.077Z,56.70
2017-08-08T16:58:38.539Z,56.70
2017-08-08T17:01:06.013Z,57.00
2017-08-08T17:03:33.490Z,57.20
2017-08-08T17:06:00.971Z,57.30
2017-08-08T17:08:28.430Z,57.30
2017-08-08T17:10:55.917Z,57.50
2017-08-08T17:13:24.166Z,57.70
2017-08-08T17:15:51.627Z,57.70
2017-08-08T17:18:19.115Z,58.00
2017-08-08T17:20:46.569Z,58.00
2017-08-08T17:23:14.022Z,58.20
2017-08-08T17:25:41.501Z,58.20
2017-08-08T17:28:08.961Z,58.20
2017-08-08T17:30:36.454Z,58.30
2017-08-08T17:33:03.918Z,58.40
2017-08-08T17:35:31.374Z,58.40
2017-08-08T17:37:58.859Z,58.40
2017-08-08T17:40:26.346Z,58.30
2017-08-08T17:42:53.802Z,58.30
2017-08-08T17:45:21.258Z,58.50
2017-08-08T17:47:48.741Z,58.90
2017-08-08T17:50:16.198Z,58.90
2017-08-08T17:52:43.694Z,59.00
2017-08-08T17:55:11.153Z,59.00
2017-08-08T17:57:38.619Z,59.20
2017-08-08T18:00:06.101Z,59.50
2017-08-08T18:02:33.558Z,59.80
2017-08-08T18:05:01.078Z,60.00
2017-08-08T18:07:28.543Z,60.50
2017-08-08T18:09:56.006Z,60.90
2017-08-08T18:12:23.505Z,61.40
2017-08-08T18:14:50.965Z,61.70
2017-08-08T18:17:18.430Z,62.00
2017-08-08T18:19:46.737Z,62.10
2017-08-08T18:22:14.220Z,61.70
2017-08-08T18:24:41.672Z,60.40
2017-08-08T18:27:09.130Z,60.20
2017-08-08T18:29:36.597Z,60.30
2017-08-08T18:32:04.057Z,60.40
2017-08-08T18:34:31.550Z,60.30
2017-08-08T18:36:59.006Z,59.90
2017-08-08T18:39:26.467Z,60.00
2017-08-08T18:41:53.937Z,59.90
2017-08-08T18:44:21.386Z,59.80
2017-08-08T18:46:48.883Z,60.10
2017-08-08T18:49:16.338Z,60.10
2017-08-08T18:51:43.781Z,59.80
2017-08-08T18:54:11.259Z,60.00
2017-08-08T18:56:38.715Z,60.00
2017-08-08T18:59:06.181Z,60.00
2017-08-08T19:01:33.667Z,60.00
2017-08-08T19:04:01.886Z,59.70
2017-08-08T19:06:29.337Z,59.70
2017-08-08T19:08:56.802Z,59.80
2017-08-08T19:11:24.267Z,59.80
2017-08-08T19:13:51.738Z,59.70
2017-08-08T19:16:19.198Z,59.70
2017-08-08T19:18:46.674Z,59.70
2017-08-08T19:21:14.121Z,59.80
2017-08-08T19:23:41.582Z,59.90
2017-08-08T19:26:09.054Z,59.90
2017-08-08T19:28:36.513Z,59.90
2017-08-08T19:31:04.006Z,59.90
2017-08-08T19:33:31.465Z,59.90
2017-08-08T19:35:58.931Z,59.90
2017-08-08T19:38:26.417Z,60.00
2017-08-08T19:40:53.881Z,60.10
2017-08-08T19:43:21.338Z,60.10
2017-08-08T19:45:48.823Z,60.30
2017-08-08T19:48:17.046Z,60.40
2017-08-08T19:50:44.521Z,60.40
2017-08-08T19:53:11.995Z,60.50
2017-08-08T19:55:39.467Z,60.60
2017-08-08T19:58:06.929Z,60.60
2017-08-08T20:00:35.177Z,61.70
2017-08-08T20:03:02.629Z,60.90
2017-08-08T20:05:30.082Z,61.00
2017-08-08T20:07:57.565Z,61.00
2017-08-08T20:10:25.017Z,61.10
2017-08-08T20:12:52.464Z,61.20
2017-08-08T20:15:19.959Z,61.20
2017-08-08T20:17:47.499Z,61.30
2017-08-08T20:20:14.958Z,61.30
2017-08-08T20:22:42.434Z,61.30
2017-08-08T20:25:09.924Z,61.50
2017-08-08T20:27:37.379Z,61.70
2017-08-08T20:30:04.901Z,61.50
2017-08-08T20:32:32.354Z,61.60
2017-08-08T20:34:59.809Z,61.60
2017-08-08T20:37:27.289Z,61.60
2017-08-08T20:39:55.556Z,61.70
2017-08-08T20:42:23.780Z,61.80
2017-08-08T20:44:51.242Z,61.70
2017-08-08T20:47:18.733Z,61.70
2017-08-08T20:49:46.195Z,61.80
2017-08-08T20:52:13.659Z,61.80
2017-08-08T20:54:41.141Z,61.80
2017-08-08T20:57:08.607Z,61.70
2017-08-08T20:59:36.077Z,61.90
2017-08-08T21:02:03.562Z,62.10
2017-08-08T21:04:31.025Z,62.20
2017-08-08T21:06:58.506Z,62.30
2017-08-08T21:09:25.979Z,62.30
2017-08-08T21:11:54.226Z,62.60
2017-08-08T21:14:21.708Z,62.60
2017-08-08T21:16:49.173Z,62.60
2017-08-08T21:19:17.435Z,62.80
2017-08-08T21:21:44.903Z,62.80
2017-08-08T21:24:13.126Z,63.20
2017-08-08T21:26:40.617Z,63.10
2017-08-08T21:29:08.074Z,63.30
2017-08-08T21:31:35.530Z,63.40
2017-08-08T21:34:03.020Z,63.60
2017-08-08T21:36:31.269Z,63.60
2017-08-08T21:38:58.721Z,63.60
2017-08-08T21:41:26.205Z,63.60
2017-08-08T21:43:54.422Z,63.50
2017-08-08T21:46:21.905Z,64.40
2017-08-08T21:48:49.385Z,63.60
2017-08-08T21:51:16.861Z,63.60
2017-08-08T21:53:45.082Z,63.60
2017-08-08T21:56:12.575Z,63.70
2017-08-08T21:58:40.025Z,63.60
2017-08-08T22:01:07.489Z,63.50
2017-08-08T22:03:34.966Z,63.40
2017-08-08T22:06:02.434Z,63.40
2017-08-08T22:08:29.895Z,63.30
2017-08-08T22:10:57.382Z,63.10
2017-08-08T22:13:24.854Z,63.10
2017-08-08T22:15:52.357Z,63.10
2017-08-08T22:18:19.819Z,64.00
2017-08-08T22:20:48.073Z,63.30
2017-08-08T22:23:15.521Z,63.30
2017-08-08T22:25:42.974Z,63.30
2017-08-08T22:28:10.465Z,63.20
2017-08-08T22:30:38.686Z,63.40
2017-08-08T22:33:06.158Z,63.40
2017-08-08T22:35:33.666Z,63.40
2017-08-08T22:38:01.126Z,63.60
2017-08-08T22:40:28.579Z,63.70
2017-08-08T22:42:56.061Z,63.80
2017-08-08T22:45:23.513Z,63.80
2017-08-08T22:47:50.970Z,63.70
2017-08-08T22:50:18.453Z,63.80
2017-08-08T22:52:45.914Z,63.80
2017-08-08T22:55:13.405Z,64.50
2017-08-08T22:57:40.858Z,63.80
2017-08-08T23:00:08.326Z,63.90
2017-08-08T23:02:35.814Z,64.10
2017-08-08T23:05:03.282Z,64.20
2017-08-08T23:07:30.738Z,64.40
2017-08-08T23:09:58.233Z,64.40
2017-08-08T23:12:25.690Z,64.50
2017-08-08T23:14:53.146Z,64.60
2017-08-08T23:17:20.637Z,64.70
2017-08-08T23:19:48.090Z,64.60
2017-08-08T23:22:15.541Z,64.60
2017-08-08T23:24:43.025Z,64.50
2017-08-08T23:27:10.486Z,64.40
2017-08-08T23:29:37.945Z,64.40
2017-08-08T23:32:05.437Z,64.40
2017-08-08T23:34:32.889Z,65.20
2017-08-08T23:37:00.365Z,64.60
2017-08-08T23:39:27.828Z,64.60
2017-08-08T23:41:55.286Z,64.70
2017-08-08T23:44:22.764Z,64.80
2017-08-08T23:46:50.214Z,64.90
2017-08-08T23:49:17.695Z,65.00
2017-08-08T23:51:45.146Z,65.00
2017-08-08T23:54:12.734Z,65.00
2017-08-08T23:56:40.189Z,65.80
2017-08-08T23:59:07.651Z,64.90
